createdAt,value
2017-07-18T00:01:52.723Z,76.80
2017-07-18T00:04:19.208Z,76.90
2017-07-18T00:06:45.646Z,77.00
2017-07-18T00:09:12.181Z,77.00
2017-07-18T00:11:38.646Z,77.20
2017-07-18T00:14:05.123Z,77.30
2017-07-18T00:16:31.626Z,77.30
2017-07-18T00:18:58.874Z,77.40
2017-07-18T00:21:26.121Z,77.50
2017-07-18T00:23:52.619Z,77.50
2017-07-18T00:26:19.085Z,77.50
2017-07-18T00:28:46.290Z,77.20
2017-07-18T00:31:12.865Z,77.70
2017-07-18T00:33:39.342Z,77.70
2017-07-18T00:36:05.816Z,77.70
2017-07-18T00:38:32.316Z,77.80
2017-07-18T00:40:58.836Z,77.80
2017-07-18T00:43:25.323Z,77.90
2017-07-18T00:45:51.833Z,78.00
2017-07-18T00:48:18.286Z,77.80
2017-07-18T00:50:44.755Z,77.80
2017-07-18T00:53:11.236Z,77.90
2017-07-18T00:55:38.369Z,78.00
2017-07-18T00:58:04.886Z,78.10
2017-07-18T01:00:31.395Z,78.10
2017-07-18T01:02:58.640Z,78.30
2017-07-18T01:05:25.859Z,78.30
2017-07-18T01:07:52.309Z,78.20
2017-07-18T01:10:19.564Z,78.20
2017-07-18T01:12:46.018Z,78.00
2017-07-18T01:15:12.576Z,78.10
2017-07-18T01:17:39.067Z,78.10
2017-07-18T01:20:06.362Z,78.20
2017-07-18T01:22:32.835Z,78.20
2017-07-18T01:24:59.341Z,78.30
2017-07-18T01:27:25.839Z,78.30
2017-07-18T01:29:52.296Z,78.30
2017-07-18T01:32:18.821Z,79.10
2017-07-18T01:34:45.319Z,78.40
2017-07-18T01:37:12.607Z,78.40
2017-07-18T01:39:39.066Z,78.40
2017-07-18T01:42:05.663Z,78.40
2017-07-18T01:44:32.193Z,78.60
2017-07-18T01:46:58.690Z,78.70
2017-07-18T01:49:25.979Z,78.60
2017-07-18T01:51:52.518Z,78.60
2017-07-18T01:54:19.032Z,78.60
2017-07-18T01:56:45.563Z,78.80
2017-07-18T01:59:12.074Z,78.70
2017-07-18T02:01:39.410Z,79.70
2017-07-18T02:04:05.918Z,78.90
2017-07-18T02:06:32.495Z,79.00
2017-07-18T02:08:59.725Z,79.00
2017-07-18T02:11:26.229Z,79.00
2017-07-18T02:13:52.665Z,79.10
2017-07-18T02:16:19.147Z,79.00
2017-07-18T02:18:46.395Z,79.20
2017-07-18T02:21:13.623Z,79.10
2017-07-18T02:23:40.140Z,79.00
2017-07-18T02:26:06.614Z,79.30
2017-07-18T02:28:33.123Z,79.40
2017-07-18T02:30:59.608Z,79.40
2017-07-18T02:33:26.052Z,79.70
2017-07-18T02:35:52.571Z,79.60
2017-07-18T02:38:19.038Z,79.70
2017-07-18T02:40:45.509Z,79.70
2017-07-18T02:43:12.765Z,79.70
2017-07-18T02:45:39.976Z,79.70
2017-07-18T02:48:06.493Z,79.70
2017-07-18T02:50:32.983Z,79.70
2017-07-18T02:52:59.479Z,79.60
2017-07-18T02:55:25.965Z,79.70
2017-07-18T02:57:52.429Z,79.80
2017-07-18T03:00:19.157Z,79.70
2017-07-18T03:02:45.633Z,80.00
2017-07-18T03:05:12.846Z,81.00
2017-07-18T03:07:39.358Z,80.30
2017-07-18T03:10:05.821Z,80.30
2017-07-18T03:12:32.309Z,80.30
2017-07-18T03:14:58.840Z,80.20
2017-07-18T03:17:25.288Z,80.30
2017-07-18T03:19:51.809Z,80.60
2017-07-18T03:22:18.289Z,80.70
2017-07-18T03:24:44.816Z,80.60
2017-07-18T03:27:11.394Z,80.40
2017-07-18T03:29:38.658Z,80.60
2017-07-18T03:32:05.129Z,80.60
2017-07-18T03:34:31.654Z,80.70
2017-07-18T03:36:58.108Z,80.90
2017-07-18T03:39:24.622Z,81.00
2017-07-18T03:41:51.089Z,81.10
2017-07-18T03:44:17.609Z,81.10
2017-07-18T03:46:44.090Z,81.10
2017-07-18T03:49:10.537Z,81.10
2017-07-18T03:51:37.174Z,81.10
2017-07-18T03:54:03.667Z,81.10
2017-07-18T03:56:30.875Z,81.10
2017-07-18T03:58:57.400Z,81.10
2017-07-18T04:01:23.894Z,81.10
2017-07-18T04:03:50.373Z,81.10
2017-07-18T04:06:16.875Z,81.10
2017-07-18T04:08:43.339Z,81.10
2017-07-18T04:11:09.916Z,81.10
2017-07-18T04:13:37.121Z,81.20
2017-07-18T04:16:03.625Z,81.10
2017-07-18T04:18:30.118Z,81.20
2017-07-18T04:20:56.577Z,81.20
2017-07-18T04:23:23.127Z,81.20
2017-07-18T04:25:49.721Z,81.30
2017-07-18T04:28:16.974Z,81.00
2017-07-18T04:30:44.222Z,80.60
2017-07-18T04:33:11.429Z,80.10
2017-07-18T04:35:37.888Z,80.10
2017-07-18T04:38:04.366Z,80.00
2017-07-18T04:40:30.868Z,79.60
2017-07-18T04:42:58.149Z,79.70
2017-07-18T04:45:24.650Z,79.60
2017-07-18T04:47:51.167Z,79.40
2017-07-18T04:50:17.626Z,79.50
2017-07-18T04:52:44.838Z,78.70
2017-07-18T04:55:11.337Z,78.60
2017-07-18T04:57:37.833Z,78.90
2017-07-18T05:00:05.086Z,79.00
2017-07-18T05:02:32.315Z,78.50
2017-07-18T05:04:58.807Z,78.50
2017-07-18T05:07:25.276Z,78.30
2017-07-18T05:09:51.800Z,78.10
2017-07-18T05:12:18.292Z,77.90
2017-07-18T05:14:44.753Z,77.70
2017-07-18T05:17:11.242Z,76.90
2017-07-18T05:19:37.717Z,77.00
2017-07-18T05:22:04.205Z,76.70
2017-07-18T05:24:31.462Z,76.00
2017-07-18T05:26:57.952Z,76.00
2017-07-18T05:29:24.479Z,74.80
2017-07-18T05:31:50.965Z,73.10
2017-07-18T05:34:17.518Z,71.70
2017-07-18T05:36:44.043Z,70.70
2017-07-18T05:39:10.524Z,70.50
2017-07-18T05:41:36.988Z,69.50
2017-07-18T05:44:04.278Z,69.50
2017-07-18T05:46:30.780Z,69.40
2017-07-18T05:48:57.304Z,68.70
2017-07-18T05:51:23.821Z,68.40
2017-07-18T05:53:50.316Z,68.00
2017-07-18T05:56:16.967Z,67.70
2017-07-18T05:58:43.430Z,67.80
2017-07-18T06:01:10.649Z,65.10
2017-07-18T06:03:37.156Z,65.10
2017-07-18T06:06:03.670Z,64.60
2017-07-18T06:08:30.179Z,65.60
2017-07-18T06:10:57.457Z,64.70
2017-07-18T06:13:23.958Z,64.50
2017-07-18T06:15:51.194Z,62.80
2017-07-18T06:18:17.691Z,62.80
2017-07-18T06:20:44.227Z,64.00
2017-07-18T06:23:10.688Z,62.80
2017-07-18T06:25:37.157Z,62.90
2017-07-18T06:28:03.716Z,62.80
2017-07-18T06:30:30.219Z,61.40
2017-07-18T06:32:57.425Z,57.10
2017-07-18T06:35:23.967Z,57.10
2017-07-18T06:37:50.432Z,56.40
2017-07-18T06:40:17.692Z,56.00
2017-07-18T06:42:44.166Z,55.90
2017-07-18T06:45:10.699Z,55.10
2017-07-18T06:47:37.429Z,57.00
2017-07-18T06:50:03.930Z,54.70
2017-07-18T06:52:30.425Z,55.10
2017-07-18T06:54:57.199Z,54.40
2017-07-18T06:57:23.708Z,55.70
2017-07-18T06:59:50.178Z,54.50
2017-07-18T07:02:16.678Z,54.70
2017-07-18T07:04:43.895Z,52.90
2017-07-18T07:07:10.355Z,52.90
2017-07-18T07:09:36.835Z,52.50
2017-07-18T07:12:03.316Z,52.70
2017-07-18T07:14:29.873Z,53.10
2017-07-18T07:16:56.367Z,51.40
2017-07-18T07:19:22.833Z,50.70
2017-07-18T07:21:50.083Z,50.30
2017-07-18T07:24:17.305Z,49.50
2017-07-18T07:26:43.769Z,49.50
2017-07-18T07:29:10.311Z,47.90
2017-07-18T07:31:36.779Z,48.80
2017-07-18T07:34:03.274Z,48.60
2017-07-18T07:36:29.806Z,47.50
2017-07-18T07:38:56.339Z,47.60
2017-07-18T07:41:22.804Z,46.70
2017-07-18T07:43:49.314Z,46.30
2017-07-18T07:46:15.809Z,47.20
2017-07-18T07:48:42.288Z,46.80
2017-07-18T07:51:08.784Z,47.30
2017-07-18T07:53:36.038Z,45.40
2017-07-18T07:56:03.229Z,44.60
2017-07-18T07:58:29.766Z,44.50
2017-07-18T08:00:56.258Z,43.70
2017-07-18T08:03:23.905Z,43.70
2017-07-18T08:05:51.138Z,43.00
2017-07-18T08:08:17.612Z,42.90
2017-07-18T08:10:44.134Z,43.30
2017-07-18T08:13:11.347Z,41.60
2017-07-18T08:15:37.810Z,41.60
2017-07-18T08:18:05.026Z,42.10
2017-07-18T08:20:31.495Z,42.00
2017-07-18T08:22:58.734Z,41.50
2017-07-18T08:25:25.958Z,41.60
2017-07-18T08:27:52.487Z,41.60
2017-07-18T08:30:19.319Z,41.80
2017-07-18T08:32:45.789Z,42.60
2017-07-18T08:35:13.064Z,41.00
2017-07-18T08:37:39.541Z,41.00
2017-07-18T08:40:06.031Z,42.20
2017-07-18T08:42:32.701Z,41.70
2017-07-18T08:44:59.172Z,40.50
2017-07-18T08:47:25.663Z,41.00
2017-07-18T08:49:52.171Z,39.70
2017-07-18T08:52:18.641Z,39.00
2017-07-18T08:54:45.274Z,39.00
2017-07-18T08:57:11.740Z,38.70
2017-07-18T08:59:38.925Z,37.90
2017-07-18T09:02:05.431Z,38.40
2017-07-18T09:04:32.687Z,37.00
2017-07-18T09:06:59.967Z,36.30
2017-07-18T09:09:26.458Z,36.20
2017-07-18T09:11:53.689Z,35.50
2017-07-18T09:14:20.219Z,35.50
2017-07-18T09:16:46.699Z,35.40
2017-07-18T09:19:13.195Z,34.90
2017-07-18T09:21:39.694Z,35.80
2017-07-18T09:24:06.262Z,35.00
2017-07-18T09:26:32.722Z,35.20
2017-07-18T09:28:59.201Z,35.70
2017-07-18T09:31:25.835Z,35.00
2017-07-18T09:33:52.321Z,35.30
2017-07-18T09:36:19.538Z,34.40
2017-07-18T09:38:46.090Z,34.30
2017-07-18T09:41:13.319Z,34.20
2017-07-18T09:43:39.833Z,34.20
2017-07-18T09:46:06.368Z,34.80
2017-07-18T09:48:32.822Z,35.60
2017-07-18T09:50:59.337Z,34.20
2017-07-18T09:53:25.839Z,34.50
2017-07-18T09:55:52.376Z,34.10
2017-07-18T09:58:18.854Z,35.00
2017-07-18T10:00:45.347Z,35.40
2017-07-18T10:03:11.821Z,34.70
2017-07-18T10:05:38.302Z,35.20
2017-07-18T10:08:04.819Z,34.90
2017-07-18T10:10:31.277Z,36.00
2017-07-18T10:12:57.763Z,35.70
2017-07-18T10:15:25.022Z,36.10
2017-07-18T10:17:52.231Z,34.00
2017-07-18T10:20:18.726Z,34.00
2017-07-18T10:22:45.176Z,34.10
2017-07-18T10:25:11.735Z,34.30
2017-07-18T10:27:38.200Z,36.60
2017-07-18T10:30:05.434Z,33.20
2017-07-18T10:32:31.984Z,33.10
2017-07-18T10:34:59.195Z,33.80
2017-07-18T10:37:25.691Z,33.70
2017-07-18T10:39:52.152Z,35.20
2017-07-18T10:42:18.766Z,32.80
2017-07-18T10:44:45.290Z,33.60
2017-07-18T10:47:11.742Z,33.70
2017-07-18T10:49:38.241Z,34.10
2017-07-18T10:52:05.481Z,34.90
2017-07-18T10:54:32.740Z,34.90
2017-07-18T10:56:59.955Z,34.50
2017-07-18T10:59:26.495Z,34.50
2017-07-18T11:01:52.965Z,35.50
2017-07-18T11:04:19.438Z,37.20
2017-07-18T11:06:45.933Z,36.10
2017-07-18T11:09:12.453Z,36.30
2017-07-18T11:11:39.677Z,36.00
2017-07-18T11:14:06.145Z,36.00
2017-07-18T11:16:32.624Z,36.40
2017-07-18T11:18:59.124Z,37.80
2017-07-18T11:21:25.627Z,36.80
2017-07-18T11:23:52.898Z,37.00
2017-07-18T11:26:19.373Z,37.00
2017-07-18T11:28:45.844Z,37.20
2017-07-18T11:31:13.090Z,38.50
2017-07-18T11:33:39.603Z,38.40
2017-07-18T11:36:06.109Z,36.70
2017-07-18T11:38:32.595Z,37.40
2017-07-18T11:40:59.839Z,38.30
2017-07-18T11:43:27.069Z,39.20
2017-07-18T11:45:53.558Z,39.20
2017-07-18T11:48:20.311Z,39.00
2017-07-18T11:50:46.785Z,38.70
2017-07-18T11:53:14.001Z,39.40
2017-07-18T11:55:40.512Z,39.30
2017-07-18T11:58:06.974Z,40.00
2017-07-18T12:00:33.486Z,40.10
2017-07-18T12:02:59.946Z,40.80
2017-07-18T12:05:26.393Z,39.90
2017-07-18T12:07:53.802Z,40.10
2017-07-18T12:10:20.274Z,40.00
2017-07-18T12:12:46.760Z,40.70
2017-07-18T12:15:13.246Z,41.20
2017-07-18T12:17:40.458Z,41.10
2017-07-18T12:20:06.989Z,40.40
2017-07-18T12:22:33.508Z,39.90
2017-07-18T12:24:59.997Z,40.40
2017-07-18T12:27:27.274Z,40.70
2017-07-18T12:29:53.758Z,40.70
2017-07-18T12:32:20.484Z,40.20
2017-07-18T12:34:46.963Z,40.00
2017-07-18T12:37:14.177Z,40.90
2017-07-18T12:39:40.651Z,40.80
2017-07-18T12:42:07.135Z,40.10
2017-07-18T12:44:33.664Z,40.80
2017-07-18T12:47:00.147Z,41.40
2017-07-18T12:49:26.623Z,41.00
2017-07-18T12:51:53.097Z,40.80
2017-07-18T12:54:20.324Z,40.00
2017-07-18T12:56:46.859Z,39.90
2017-07-18T12:59:13.318Z,40.20
2017-07-18T13:01:41.739Z,40.40
2017-07-18T13:04:08.216Z,40.40
2017-07-18T13:06:34.682Z,40.40
2017-07-18T13:09:01.207Z,40.20
2017-07-18T13:11:27.673Z,40.20
2017-07-18T13:13:54.220Z,39.90
2017-07-18T13:16:20.695Z,40.70
2017-07-18T13:18:47.910Z,40.70
2017-07-18T13:21:14.434Z,40.70
2017-07-18T13:23:40.912Z,40.60
2017-07-18T13:26:08.161Z,40.90
2017-07-18T13:28:34.609Z,40.90
2017-07-18T13:31:01.287Z,40.60
2017-07-18T13:33:27.754Z,40.80
2017-07-18T13:35:54.977Z,40.50
2017-07-18T13:38:21.491Z,40.40
2017-07-18T13:40:47.977Z,40.30
2017-07-18T13:43:15.370Z,39.80
2017-07-18T13:45:41.882Z,39.70
2017-07-18T13:48:08.363Z,40.40
2017-07-18T13:50:34.859Z,40.20
2017-07-18T13:53:01.314Z,40.60
2017-07-18T13:55:27.823Z,40.20
2017-07-18T13:57:54.300Z,40.30
2017-07-18T14:00:21.607Z,41.00
2017-07-18T14:02:48.115Z,40.60
2017-07-18T14:05:14.587Z,39.80
2017-07-18T14:07:41.101Z,39.60
2017-07-18T14:10:07.566Z,39.90
2017-07-18T14:12:34.029Z,40.00
2017-07-18T14:15:01.414Z,40.00
2017-07-18T14:17:27.869Z,40.00
2017-07-18T14:19:54.342Z,39.90
2017-07-18T14:22:21.579Z,40.60
2017-07-18T14:24:48.028Z,40.30
2017-07-18T14:27:15.282Z,39.10
2017-07-18T14:29:42.495Z,39.40
2017-07-18T14:32:08.974Z,39.30
2017-07-18T14:34:36.212Z,39.30
2017-07-18T14:37:03.418Z,39.20
2017-07-18T14:39:29.909Z,39.10
2017-07-18T14:41:56.414Z,39.20
2017-07-18T14:44:22.876Z,38.80
2017-07-18T14:46:49.397Z,39.30
2017-07-18T14:49:16.599Z,39.90
2017-07-18T14:51:43.069Z,39.80
2017-07-18T14:54:10.302Z,38.90
2017-07-18T14:56:37.013Z,38.90
2017-07-18T14:59:03.469Z,39.00
2017-07-18T15:01:29.950Z,39.20
2017-07-18T15:03:56.469Z,39.10
2017-07-18T15:06:22.956Z,38.60
2017-07-18T15:08:49.460Z,38.30
2017-07-18T15:11:15.922Z,38.60
2017-07-18T15:13:42.548Z,38.50
2017-07-18T15:16:09.008Z,38.20
2017-07-18T15:18:35.486Z,37.90
2017-07-18T15:21:01.990Z,38.10
2017-07-18T15:23:29.447Z,37.60
2017-07-18T15:25:56.701Z,37.80
2017-07-18T15:28:23.914Z,38.60
2017-07-18T15:30:50.433Z,38.50
2017-07-18T15:33:16.884Z,39.10
2017-07-18T15:35:43.386Z,38.90
2017-07-18T15:38:10.020Z,39.50
2017-07-18T15:40:36.488Z,39.50
2017-07-18T15:43:02.955Z,38.70
2017-07-18T15:45:29.506Z,39.20
2017-07-18T15:47:56.006Z,40.40
2017-07-18T15:50:23.417Z,40.60
2017-07-18T15:52:49.881Z,40.60
2017-07-18T15:55:16.386Z,39.80
2017-07-18T15:57:43.113Z,39.60
2017-07-18T16:00:09.624Z,40.00
2017-07-18T16:02:36.090Z,38.80
2017-07-18T16:05:02.633Z,38.70
2017-07-18T16:07:29.111Z,38.60
2017-07-18T16:09:55.798Z,38.70
2017-07-18T16:12:22.276Z,39.00
2017-07-18T16:14:49.470Z,39.60
2017-07-18T16:17:15.948Z,39.60
2017-07-18T16:19:43.169Z,39.00
2017-07-18T16:22:09.680Z,38.90
2017-07-18T16:24:36.137Z,38.70
2017-07-18T16:27:02.827Z,38.90
2017-07-18T16:29:29.324Z,39.00
2017-07-18T16:31:55.792Z,39.30
2017-07-18T16:34:29.172Z,39.20
2017-07-18T16:36:55.660Z,39.20
2017-07-18T16:39:22.383Z,38.90
2017-07-18T16:41:48.881Z,39.10
2017-07-18T16:44:15.354Z,39.30
2017-07-18T16:46:41.950Z,39.00
2017-07-18T16:49:08.386Z,38.60
2017-07-18T16:51:34.854Z,38.70
2017-07-18T16:54:01.400Z,39.80
2017-07-18T16:56:27.866Z,40.80
2017-07-18T16:58:55.073Z,39.50
2017-07-18T17:01:21.572Z,39.40
2017-07-18T17:03:48.039Z,39.90
2017-07-18T17:06:14.574Z,39.90
2017-07-18T17:08:41.042Z,39.70
2017-07-18T17:11:08.253Z,39.70
2017-07-18T17:13:34.778Z,39.70
2017-07-18T17:16:01.261Z,39.80
2017-07-18T17:18:28.474Z,39.70
2017-07-18T17:20:54.979Z,39.60
2017-07-18T17:23:21.497Z,40.00
2017-07-18T17:25:47.998Z,40.30
2017-07-18T17:28:15.233Z,40.30
2017-07-18T17:30:41.703Z,40.30
2017-07-18T17:33:08.201Z,40.50
2017-07-18T17:35:34.683Z,40.90
2017-07-18T17:38:01.174Z,40.90
2017-07-18T17:40:28.381Z,41.60
2017-07-18T17:42:55.022Z,41.60
2017-07-18T17:45:21.524Z,41.80
2017-07-18T17:47:48.042Z,41.80
2017-07-18T17:50:15.283Z,42.70
2017-07-18T17:52:42.534Z,43.00
2017-07-18T17:55:09.765Z,43.40
2017-07-18T17:57:36.256Z,43.40
2017-07-18T18:00:02.997Z,44.10
2017-07-18T18:02:29.453Z,45.00
2017-07-18T18:04:55.925Z,46.00
2017-07-18T18:07:23.176Z,45.60
2017-07-18T18:09:50.371Z,45.80
2017-07-18T18:12:16.910Z,45.80
2017-07-18T18:14:43.382Z,46.50
2017-07-18T18:17:10.612Z,47.10
2017-07-18T18:19:37.079Z,47.10
2017-07-18T18:22:03.563Z,48.30
2017-07-18T18:24:30.061Z,47.90
2017-07-18T18:26:56.528Z,49.00
2017-07-18T18:29:23.050Z,48.40
2017-07-18T18:31:49.553Z,49.50
2017-07-18T18:34:16.081Z,50.20
2017-07-18T18:36:42.509Z,50.50
2017-07-18T18:39:09.058Z,50.90
2017-07-18T18:41:35.512Z,51.50
2017-07-18T18:44:01.960Z,52.30
2017-07-18T18:46:28.462Z,53.00
2017-07-18T18:48:54.967Z,53.50
2017-07-18T18:51:21.476Z,53.40
2017-07-18T18:53:47.948Z,51.30
2017-07-18T18:56:14.427Z,51.00
2017-07-18T18:58:41.137Z,51.10
2017-07-18T19:01:07.599Z,51.80
2017-07-18T19:03:34.077Z,52.20
2017-07-18T19:06:00.599Z,53.20
2017-07-18T19:08:27.845Z,54.50
2017-07-18T19:10:54.385Z,54.40
2017-07-18T19:13:20.924Z,54.60
2017-07-18T19:15:47.431Z,54.90
2017-07-18T19:18:14.847Z,56.00
2017-07-18T19:20:41.331Z,55.90
2017-07-18T19:23:08.718Z,56.50
2017-07-18T19:25:35.235Z,57.00
2017-07-18T19:28:01.815Z,57.60
2017-07-18T19:30:28.614Z,57.40
2017-07-18T19:32:55.125Z,57.50
2017-07-18T19:35:22.417Z,58.20
2017-07-18T19:37:48.958Z,58.20
2017-07-18T19:40:15.441Z,58.50
2017-07-18T19:42:42.693Z,59.10
2017-07-18T19:45:09.215Z,59.00
2017-07-18T19:47:36.510Z,59.70
2017-07-18T19:50:03.016Z,59.70
2017-07-18T19:52:29.718Z,59.90
2017-07-18T19:54:56.286Z,60.40
2017-07-18T19:57:23.629Z,60.90
2017-07-18T19:59:50.858Z,61.40
2017-07-18T20:02:18.237Z,59.70
2017-07-18T20:04:46.039Z,59.10
2017-07-18T20:07:12.842Z,59.10
2017-07-18T20:09:39.607Z,60.00
2017-07-18T20:12:06.228Z,59.10
2017-07-18T20:14:32.800Z,59.00
2017-07-18T20:16:59.474Z,58.80
2017-07-18T20:19:26.732Z,59.20
2017-07-18T20:21:54.010Z,59.40
2017-07-18T20:24:20.541Z,59.40
2017-07-18T20:26:47.042Z,61.10
2017-07-18T20:29:14.618Z,72.70
2017-07-18T20:31:41.133Z,72.50
2017-07-18T20:34:08.358Z,73.90
2017-07-18T20:36:34.890Z,74.40
2017-07-18T20:39:01.358Z,76.50
2017-07-18T20:41:28.628Z,77.70
2017-07-18T20:43:55.096Z,77.70
2017-07-18T20:46:21.650Z,78.20
2017-07-18T20:48:48.115Z,80.00
2017-07-18T20:51:15.302Z,80.90
2017-07-18T20:53:41.807Z,80.90
2017-07-18T20:56:08.264Z,81.50
2017-07-18T20:58:34.802Z,81.80
2017-07-18T21:01:01.283Z,82.50
2017-07-18T21:03:28.522Z,83.60
2017-07-18T21:05:55.022Z,83.50
2017-07-18T21:08:21.531Z,84.00
2017-07-18T21:10:47.993Z,85.30
2017-07-18T21:13:14.492Z,84.60
2017-07-18T21:15:40.959Z,85.20
2017-07-18T21:18:07.528Z,85.50
2017-07-18T21:20:34.004Z,85.80
2017-07-18T21:23:00.493Z,85.90
2017-07-18T21:25:27.751Z,85.90
2017-07-18T21:27:55.024Z,85.90
2017-07-18T21:30:21.688Z,85.90
2017-07-18T21:32:48.187Z,86.00
2017-07-18T21:35:14.673Z,86.50
2017-07-18T21:37:41.199Z,86.50
2017-07-18T21:40:07.675Z,86.50
2017-07-18T21:42:34.889Z,86.70
2017-07-18T21:45:01.420Z,86.70
2017-07-18T21:47:27.905Z,86.80
2017-07-18T21:49:54.422Z,86.80
2017-07-18T21:52:21.606Z,87.10
2017-07-18T21:54:48.091Z,87.00
2017-07-18T21:57:15.342Z,87.10
2017-07-18T21:59:42.579Z,86.70
2017-07-18T22:02:09.092Z,86.70
2017-07-18T22:04:35.551Z,86.60
2017-07-18T22:07:01.985Z,86.40
2017-07-18T22:09:29.270Z,86.20
2017-07-18T22:11:55.733Z,86.30
2017-07-18T22:14:22.249Z,86.70
2017-07-18T22:16:48.712Z,87.10
2017-07-18T22:19:15.187Z,87.30
2017-07-18T22:21:41.707Z,87.50
2017-07-18T22:24:08.905Z,87.20
2017-07-18T22:26:35.444Z,87.20
2017-07-18T22:29:01.917Z,87.50
2017-07-18T22:31:29.121Z,88.50
2017-07-18T22:33:55.645Z,87.90
2017-07-18T22:36:22.100Z,88.00
2017-07-18T22:38:48.714Z,87.80
2017-07-18T22:41:15.178Z,87.80
2017-07-18T22:43:41.625Z,87.70
2017-07-18T22:46:08.908Z,87.50
2017-07-18T22:48:35.433Z,87.10
2017-07-18T22:51:02.105Z,86.90
2017-07-18T22:53:28.566Z,87.30
2017-07-18T22:55:55.050Z,87.30
2017-07-18T22:58:21.722Z,87.10
2017-07-18T23:00:48.197Z,87.00
2017-07-18T23:03:14.704Z,87.20
2017-07-18T23:05:42.096Z,87.40
2017-07-18T23:08:08.603Z,87.50
2017-07-18T23:10:35.784Z,87.00
2017-07-18T23:13:02.456Z,86.90
2017-07-18T23:15:28.955Z,86.80
2017-07-18T23:17:55.424Z,86.70
2017-07-18T23:20:21.926Z,86.60
2017-07-18T23:22:48.405Z,86.30
2017-07-18T23:25:14.935Z,86.00
2017-07-18T23:27:41.398Z,85.00
2017-07-18T23:30:08.682Z,85.50
2017-07-18T23:32:35.194Z,85.50
2017-07-18T23:35:01.667Z,85.30
2017-07-18T23:37:28.188Z,85.60
2017-07-18T23:39:54.648Z,85.60
2017-07-18T23:42:21.255Z,85.30
2017-07-18T23:44:47.743Z,85.30
2017-07-18T23:47:14.270Z,85.50
2017-07-18T23:49:40.772Z,85.30
2017-07-18T23:52:07.244Z,85.30
2017-07-18T23:54:33.795Z,85.10
2017-07-18T23:57:00.246Z,84.80
2017-07-18T23:59:26.725Z,84.80
